Deanshanger, United Kingdom
Current Conditions -  °F | °C
As of 3:50 PM on Friday 28 Nov 2014 (Local Time) from EGTC Reporting Station
Haze Haze  
Wind Chill: 52°   Ceiling: 1000
Heat Index: 52°   Visibility: 3mi
Dew Point: 48°   Wind: 14mph
Humidity: 88%   Direction: 80°E
Pressure: 29.65"   Gusts: NA
Location:  52.05°N, 0.89°W
Report Text: EGTC 281550Z 08012KT 5000 HZ BKN010 11/09 Q1004
Loading
Personal Weather Stations






























Interactive Weather Map New forecast layout! Learn more

10-Day Weather Forecast

Advertisements
Track Severe Weather on mobile